Time;durP1;ratioP1;P1;durP2;ratioP2;P2;SDS_P1;SDS_P2;PMS_P1;PMS_P2;Temp;Humidity;BMP_temperature;BMP_pressure;BME280_temperature;BME280_humidity;BME280_pressure;Samples;Min_cycle;Max_cycle;Signal;HPM_P1;HPM_P2
2021/03/28 00:00:23;;;;;;;27.35;16.60;;;;;;;3.97;54.13;97895.98;1780880;81;21159;-80
2021/03/28 00:03:00;;;;;;;28.65;16.45;;;;;;;3.94;54.21;97893.52;1776298;80;21115;-81
2021/03/28 00:05:35;;;;;;;32.95;17.62;;;;;;;3.91;54.47;97898.84;1745339;82;21222;-81
2021/03/28 00:08:18;;;;;;;31.23;18.27;;;;;;;3.88;54.53;97898.52;1731123;83;21240;-78
2021/03/28 00:11:22;;;;;;;34.92;19.05;;;;;;;3.86;54.54;97899.03;1705389;84;21157;-81
2021/03/28 00:14:13;;;;;;;29.30;18.05;;;;;;;3.81;54.62;97901.43;1708352;80;21262;-80
2021/03/28 00:17:24;;;;;;;30.82;17.77;;;;;;;3.77;55.04;97897.23;1758831;82;21370;-81
2021/03/28 00:20:29;;;;;;;32.85;18.15;;;;;;;3.69;55.64;97901.00;1737868;82;21289;-80
2021/03/28 00:23:26;;;;;;;36.13;18.70;;;;;;;3.68;55.58;97899.77;1746996;78;21141;-80
2021/03/28 00:26:26;;;;;;;34.43;19.25;;;;;;;3.51;55.47;97880.43;1745748;82;21204;-80
2021/03/28 00:29:23;;;;;;;30.50;17.25;;;;;;;3.64;55.51;97897.74;1719929;82;21196;-81
2021/03/28 00:33:00;;;;;;;29.77;17.12;;;;;;;3.66;56.73;97899.84;1822219;77;24465;-80
2021/03/28 00:35:56;;;;;;;25.15;15.05;;;;;;;3.58;55.95;97901.44;1774642;79;21307;-79
2021/03/28 00:38:49;;;;;;;33.08;13.98;;;;;;;3.55;55.78;97898.94;1767325;80;21282;-79
2021/03/28 00:42:02;;;;;;;29.15;15.95;;;;;;;3.53;56.01;97891.63;1723562;81;21141;-80
2021/03/28 00:44:39;;;;;;;30.92;17.10;;;;;;;3.53;56.13;97896.84;1735097;82;22232;-81
2021/03/28 00:47:26;;;;;;;33.75;19.15;;;;;;;3.57;56.34;97897.59;1718926;82;21727;-79
2021/03/28 00:50:26;;;;;;;33.18;17.55;;;;;;;3.62;56.41;97894.80;1697311;83;21926;-80
2021/03/28 00:53:01;;;;;;;29.40;17.17;;;;;;;3.66;56.53;97883.33;1684215;82;21543;-81
2021/03/28 00:56:04;;;;;;;29.98;17.32;;;;;;;3.80;57.22;97891.91;1828047;77;24734;-82
2021/03/28 00:59:31;;;;;;;33.23;18.30;;;;;;;3.77;56.22;97890.27;1807658;79;21218;-83
2021/03/28 01:03:10;;;;;;;31.65;18.57;;;;;;;3.82;56.95;97897.91;1801775;79;21139;-82
2021/03/28 01:16:53;;;;;;;34.92;21.42;;;;;;;4.06;58.30;97891.69;1862148;76;24678;-80
2021/03/28 01:19:55;;;;;;;33.42;19.90;;;;;;;4.05;56.85;97889.98;1850512;78;21130;-80
2021/03/28 01:23:12;;;;;;;35.70;21.37;;;;;;;4.12;57.07;97890.59;1844867;78;21252;-83
2021/03/28 01:26:09;;;;;;;34.27;21.45;;;;;;;4.14;56.75;97882.69;1845728;78;21233;-82
2021/03/28 01:29:01;;;;;;;41.10;20.13;;;;;;;4.17;56.80;97883.88;1844139;78;21107;-81
2021/03/28 01:32:20;;;;;;;30.97;20.00;;;;;;;4.17;56.77;97887.79;1850428;78;21260;-80
2021/03/28 01:35:13;;;;;;;32.13;18.98;;;;;;;4.19;56.57;97884.20;1815250;79;21245;-80
2021/03/28 01:38:23;;;;;;;37.40;19.95;;;;;;;4.23;57.48;97886.22;1791474;80;24707;-82
2021/03/28 01:41:25;;;;;;;34.95;18.07;;;;;;;4.15;56.96;97889.17;1765008;81;21112;-80
2021/03/28 01:44:16;;;;;;;31.75;20.97;;;;;;;4.12;56.47;97881.93;1699750;84;21303;-82
2021/03/28 01:47:41;;;;;;;30.60;18.35;;;;;;;4.09;56.48;97889.41;1727896;83;22004;-81
2021/03/28 01:50:29;;;;;;;29.27;16.87;;;;;;;4.04;56.68;97888.76;1568996;92;21263;-78
2021/03/28 01:53:43;;;;;;;29.55;19.12;;;;;;;4.04;57.50;97885.68;1820888;79;24243;-81
2021/03/28 01:56:32;;;;;;;31.07;19.55;;;;;;;3.94;56.87;97883.08;1786603;80;21287;-79
2021/03/28 01:59:34;;;;;;;30.27;16.82;;;;;;;3.77;57.21;97886.80;1827456;77;24151;-83
2021/03/28 02:02:32;;;;;;;27.87;15.30;;;;;;;3.77;57.21;97886.80;1804294;78;21305;-79
2021/03/28 02:05:28;;;;;;;31.33;15.53;;;;;;;3.73;57.03;97890.86;1804852;80;21235;-79
2021/03/28 02:08:30;;;;;;;30.17;16.15;;;;;;;3.69;57.16;97887.97;1804344;79;21215;-83
2021/03/28 02:11:39;;;;;;;26.77;15.80;;;;;;;3.68;57.61;97891.48;1800152;78;21239;-79
2021/03/28 02:14:34;;;;;;;29.30;16.37;;;;;;;3.68;57.97;97886.73;1794941;80;21179;-80
2021/03/28 02:17:57;;;;;;;23.77;14.30;;;;;;;3.70;58.36;97890.97;1739945;82;21165;-81
2021/03/28 02:20:45;;;;;;;23.87;14.70;;;;;;;3.79;58.51;97890.20;1740359;82;21265;-87
2021/03/28 02:23:37;;;;;;;28.77;16.00;;;;;;;3.80;58.70;97884.95;1742008;81;21159;-83
2021/03/28 02:27:07;;;;;;;29.85;16.77;;;;;;;3.86;59.29;97886.43;1833434;77;25886;-78
2021/03/28 02:30:07;;;;;;;27.15;15.55;;;;;;;3.86;59.29;97886.43;1803086;80;21102;-81
2021/03/28 02:33:10;;;;;;;26.20;14.83;;;;;;;4.01;59.29;97894.95;1805530;78;21236;-79
2021/03/28 02:36:19;;;;;;;26.52;12.95;;;;;;;4.11;59.28;97893.27;1800451;80;21107;-80
2021/03/28 02:39:25;;;;;;;19.37;11.22;;;;;;;4.24;59.23;97885.78;1800875;80;21249;-81
2021/03/28 02:42:18;;;;;;;21.45;12.80;;;;;;;4.31;58.99;97886.77;1800772;80;21297;-78
2021/03/28 02:45:20;;;;;;;19.67;12.07;;;;;;;4.48;58.95;97879.98;1860047;77;24534;-79
2021/03/28 02:48:27;;;;;;;22.37;12.50;;;;;;;4.41;58.54;97887.69;1829945;78;21281;-80
2021/03/28 02:51:49;;;;;;;24.30;12.35;;;;;;;4.41;58.46;97883.30;1812753;79;24305;-79
2021/03/28 02:55:09;;;;;;;24.23;13.40;;;;;;;4.31;58.08;97877.64;1721241;83;21148;-82
2021/03/28 02:58:42;;;;;;;22.13;12.98;;;;;;;4.30;58.49;97882.46;1791697;80;27110;-81
2021/03/28 03:01:38;;;;;;;20.52;12.55;;;;;;;4.21;58.13;97872.41;1764674;81;21226;-81
2021/03/28 03:04:41;;;;;;;20.05;12.63;;;;;;;4.14;58.15;97871.81;1763051;81;21231;-82
2021/03/28 03:07:54;;;;;;;23.75;13.55;;;;;;;4.06;58.32;97868.67;1668976;86;21161;-81
2021/03/28 03:11:42;;;;;;;16.62;10.15;;;;;;;3.98;59.10;97872.90;1791152;80;23557;-80
2021/03/28 03:14:40;;;;;;;17.15;10.55;;;;;;;3.87;58.03;97871.17;1757598;81;21251;-81
2021/03/28 03:17:41;;;;;;;17.52;9.70;;;;;;;3.77;58.17;97866.80;1759859;81;21265;-80
2021/03/28 03:21:12;;;;;;;15.72;9.08;;;;;;;3.70;58.34;97862.28;1764802;81;22454;-79
2021/03/28 03:24:37;;;;;;;16.27;10.32;;;;;;;3.60;58.97;97866.16;1764601;81;21589;-82
2021/03/28 03:27:55;;;;;;;16.95;10.23;;;;;;;3.49;58.49;97861.39;1735546;82;21246;-79
2021/03/28 03:30:37;;;;;;;17.95;9.85;;;;;;;3.44;58.75;97861.57;1731996;81;21618;-83
2021/03/28 03:33:40;;;;;;;15.90;10.70;;;;;;;3.40;58.88;97866.96;1765764;81;21259;-81
2021/03/28 03:36:51;;;;;;;25.37;12.15;;;;;;;3.44;59.62;97873.73;1855227;77;24694;-82
2021/03/28 03:40:14;;;;;;;18.12;9.93;;;;;;;3.38;59.27;97873.55;1839953;77;21143;-80
2021/03/28 03:43:42;;;;;;;18.48;11.35;;;;;;;3.40;59.56;97873.48;1864991;77;21680;-79
2021/03/28 03:46:47;;;;;;;20.62;10.60;;;;;;;3.39;59.08;97875.69;1795808;80;21140;-81
2021/03/28 03:49:53;;;;;;;21.93;11.93;;;;;;;3.37;59.47;97875.76;1694945;83;21612;-80
2021/03/28 03:53:10;;;;;;;17.40;10.40;;;;;;;3.44;60.07;97881.55;1828861;76;24418;-80
2021/03/28 03:56:16;;;;;;;21.23;12.50;;;;;;;3.49;60.24;97876.16;1827229;77;24227;-80
2021/03/28 03:59:34;;;;;;;17.82;11.05;;;;;;;3.46;59.96;97870.62;1805538;78;21273;-79
2021/03/28 04:02:35;;;;;;;18.65;8.80;;;;;;;3.53;59.81;97866.02;1799822;78;21155;-81
2021/03/28 04:05:39;;;;;;;18.75;10.90;;;;;;;3.55;60.58;97863.74;1798832;79;21107;-81
2021/03/28 04:08:43;;;;;;;17.75;11.12;;;;;;;3.55;59.88;97864.21;1801679;78;21084;-80
2021/03/28 04:12:02;;;;;;;16.35;9.60;;;;;;;3.61;59.79;97865.73;1813985;77;21180;-81
2021/03/28 04:15:29;;;;;;;21.50;11.95;;;;;;;3.60;59.95;97863.56;1804572;80;21254;-81
2021/03/28 04:18:55;;;;;;;22.20;11.78;;;;;;;3.63;59.68;97859.53;1804188;79;21113;-79
2021/03/28 04:21:58;;;;;;;21.93;11.28;;;;;;;3.56;59.32;97860.70;1801125;79;21261;-80
2021/03/28 04:24:55;;;;;;;21.55;13.25;;;;;;;3.49;60.63;97864.00;1793467;78;21167;-79
2021/03/28 04:27:54;;;;;;;27.95;15.85;;;;;;;3.48;59.85;97857.55;1831546;78;21230;-79
2021/03/28 04:31:22;;;;;;;23.95;12.90;;;;;;;3.46;60.65;97868.48;1800284;78;21325;-80
2021/03/28 04:34:26;;;;;;;23.70;12.20;;;;;;;3.47;60.37;97863.20;1660909;84;21182;-80
2021/03/28 04:37:43;;;;;;;33.38;15.83;;;;;;;3.60;61.45;97854.44;1840463;77;23731;-79
2021/03/28 04:40:54;;;;;;;29.27;15.80;;;;;;;3.57;59.64;97846.76;1822846;77;21257;-80
2021/03/28 04:44:10;;;;;;;24.90;16.23;;;;;;;3.59;60.11;97855.34;1803888;79;21116;-79
2021/03/28 04:47:28;;;;;;;23.85;12.98;;;;;;;3.71;60.28;97856.63;1803086;79;21131;-78
2021/03/28 04:50:41;;;;;;;21.35;12.05;;;;;;;3.88;60.08;97863.75;1772642;81;21155;-80
2021/03/28 04:54:05;;;;;;;22.35;13.30;;;;;;;4.09;60.12;97859.87;1782767;77;21223;-80
2021/03/28 04:57:10;;;;;;;25.37;14.45;;;;;;;4.30;59.98;97860.72;1823863;78;21250;-81
2021/03/28 05:00:35;;;;;;;19.27;11.35;;;;;;;4.51;59.83;97864.16;1802074;78;21231;-82
2021/03/28 05:03:28;;;;;;;25.52;13.22;;;;;;;4.72;58.75;97859.78;1828222;78;21548;-79
2021/03/28 05:06:37;;;;;;;24.00;14.73;;;;;;;4.89;58.87;97870.77;1825378;78;21320;-80
2021/03/28 05:09:39;;;;;;;27.87;16.00;;;;;;;5.07;58.84;97866.92;1837245;77;21097;-79
2021/03/28 05:13:24;;;;;;;29.18;14.90;;;;;;;5.23;58.51;97865.32;1682069;83;21281;-81
2021/03/28 05:17:03;;;;;;;27.37;15.70;;;;;;;5.46;58.60;97859.46;1828998;78;24158;-79
2021/03/28 05:20:01;;;;;;;25.10;13.43;;;;;;;5.47;58.11;97868.53;1800736;80;21133;-81
2021/03/28 05:23:30;;;;;;;;;;;;;;;;;;;;;
2021/03/28 05:26:26;;;;;;;20.90;13.45;;;;;;;5.57;57.65;97861.11;1824103;78;21248;-81
2021/03/28 05:30:23;;;;;;;25.92;14.68;;;;;;;5.62;57.46;97873.97;1724002;82;21265;-84
2021/03/28 05:33:27;;;;;;;25.30;14.87;;;;;;;5.67;57.31;97878.50;1745500;82;21151;-80
2021/03/28 05:37:09;;;;;;;26.10;15.35;;;;;;;5.73;57.06;97887.39;1747268;81;21175;-88
2021/03/28 05:40:42;;;;;;;34.85;19.77;;;;;;;5.78;56.87;97902.39;1747481;81;21266;-86
2021/03/28 05:43:35;;;;;;;25.43;14.68;;;;;;;5.81;57.06;97929.33;1744504;82;21276;-81
2021/03/28 05:46:43;;;;;;;32.88;20.72;;;;;;;5.79;56.73;97927.64;1742059;79;21174;-82
2021/03/28 05:50:01;;;;;;;32.10;19.73;;;;;;;5.73;57.21;97950.61;1741365;82;21284;-79
2021/03/28 05:53:07;;;;;;;31.62;17.60;;;;;;;5.72;57.22;97967.23;1729407;81;21627;-80
2021/03/28 05:56:19;;;;;;;30.77;20.68;;;;;;;5.68;58.36;97984.84;1811345;79;24311;-83
2021/03/28 05:59:47;;;;;;;27.55;16.50;;;;;;;5.61;57.99;97990.80;1711291;83;21152;-82
2021/03/28 06:03:16;;;;;;;34.70;17.80;;;;;;;5.61;57.48;98005.19;1798762;78;21285;-80
2021/03/28 06:06:20;;;;;;;29.85;18.40;;;;;;;5.61;57.91;97998.66;1814257;78;21282;-80
2021/03/28 06:09:56;;;;;;;27.93;16.95;;;;;;;5.64;58.13;98005.53;1823075;78;21096;-83
2021/03/28 06:13:08;;;;;;;29.25;17.20;;;;;;;5.74;57.98;98013.80;1734920;82;21146;-82
2021/03/28 06:16:19;;;;;;;24.45;15.30;;;;;;;5.85;57.82;98025.93;1735496;83;21118;-82
2021/03/28 06:19:25;;;;;;;23.83;15.38;;;;;;;6.02;58.41;98036.09;1733629;83;21564;-82
2021/03/28 06:22:48;;;;;;;26.77;14.03;;;;;;;6.21;57.76;98051.33;1733580;83;21197;-84
2021/03/28 06:26:00;;;;;;;23.30;15.00;;;;;;;6.43;57.73;98063.86;1701864;84;21165;-79
2021/03/28 06:28:44;;;;;;;24.57;14.05;;;;;;;6.70;57.39;98071.69;1698287;84;21159;-81
2021/03/28 06:32:10;;;;;;;31.87;17.00;;;;;;;6.93;57.43;98076.27;1699490;84;21593;-80
2021/03/28 06:35:05;;;;;;;31.05;16.52;;;;;;;7.11;57.97;98074.95;1713614;84;21150;-85
2021/03/28 06:38:22;;;;;;;20.77;13.40;;;;;;;7.30;58.18;98086.20;1715712;84;21131;-94
2021/03/28 06:41:38;;;;;;;35.30;20.43;;;;;;;7.58;58.00;98085.22;1860084;77;24139;-90
2021/03/28 06:44:48;;;;;;;26.87;16.87;;;;;;;7.65;58.11;98078.75;1805836;78;21182;-82
2021/03/28 06:48:08;;;;;;;23.27;16.65;;;;;;;7.81;58.37;98097.13;1815065;78;21587;-89
2021/03/28 06:50:59;;;;;;;27.95;17.30;;;;;;;8.01;57.95;98096.53;1810788;79;21130;-81
2021/03/28 06:53:55;;;;;;;24.25;14.13;;;;;;;8.18;57.82;98109.59;1804428;79;21109;-86
2021/03/28 06:57:01;;;;;;;19.70;14.13;;;;;;;8.23;57.55;98125.11;1807864;79;21161;-85
2021/03/28 07:00:26;;;;;;;19.05;11.15;;;;;;;8.19;57.41;98137.56;1787427;79;21594;-83
2021/03/28 07:04:09;;;;;;;16.05;10.48;;;;;;;8.16;57.92;98155.27;1772928;79;21792;-89
2021/03/28 07:07:13;;;;;;;8.53;6.47;;;;;;;8.16;57.92;98155.27;1793565;79;21144;-85
2021/03/28 07:10:20;;;;;;;11.88;7.85;;;;;;;8.06;57.92;98155.75;1751110;81;21157;-90
2021/03/28 07:13:54;;;;;;;13.13;6.67;;;;;;;8.09;58.15;98163.48;1780233;80;24729;-83
2021/03/28 07:16:59;;;;;;;12.95;6.62;;;;;;;8.06;58.98;98161.01;1733985;83;21297;-84
2021/03/28 07:20:21;;;;;;;6.80;4.75;;;;;;;8.18;59.61;98163.44;1853413;77;24080;-93
2021/03/28 07:23:34;;;;;;;7.12;4.83;;;;;;;8.15;60.57;98178.52;1840307;77;21218;-89
2021/03/28 07:26:32;;;;;;;6.70;4.08;;;;;;;8.22;59.45;98186.45;1785177;80;21120;-92
2021/03/28 07:29:55;;;;;;;7.10;5.10;;;;;;;8.21;60.16;98169.85;1767158;79;21154;-90
2021/03/28 07:32:36;;;;;;;7.42;5.62;;;;;;;8.31;60.47;98185.95;1778206;79;21131;-88
2021/03/28 07:35:38;;;;;;;7.67;5.22;;;;;;;8.48;59.97;98176.37;1771535;79;21544;-91
2021/03/28 07:38:57;;;;;;;6.22;5.03;;;;;;;8.64;59.48;98188.17;1761885;79;21174;-86
2021/03/28 07:42:10;;;;;;;8.45;5.45;;;;;;;8.70;59.50;98195.75;1755212;79;21179;-84
2021/03/28 07:45:10;;;;;;;7.05;5.10;;;;;;;8.69;59.07;98197.51;1756356;81;21578;-83
2021/03/28 07:47:55;;;;;;;6.80;5.10;;;;;;;8.65;59.16;98201.70;1823407;77;24748;-85
2021/03/28 07:51:06;;;;;;;6.80;5.15;;;;;;;8.53;58.64;98207.17;1826688;78;21246;-85
2021/03/28 07:53:39;;;;;;;5.53;4.20;;;;;;;8.32;59.50;98219.66;1796461;78;21152;-85
2021/03/28 07:56:24;;;;;;;7.62;4.90;;;;;;;8.13;59.95;98210.13;1796264;80;21147;-85
2021/03/28 07:59:05;;;;;;;5.83;4.58;;;;;;;8.05;59.50;98207.89;1754272;80;21784;-86
2021/03/28 08:02:24;;;;;;;11.48;6.17;;;;;;;8.21;59.94;98209.25;1812699;79;24310;-84
2021/03/28 08:05:42;;;;;;;8.05;5.30;;;;;;;8.29;59.75;98207.54;1673646;85;21623;-85
2021/03/28 08:08:59;;;;;;;6.97;4.92;;;;;;;8.38;60.07;98213.62;1686334;84;21616;-81
2021/03/28 08:12:39;;;;;;;9.18;4.42;;;;;;;8.55;60.19;98213.20;1849437;76;23691;-84
2021/03/28 08:16:05;;;;;;;9.03;5.30;;;;;;;8.76;59.31;98215.11;1746576;82;21134;-83
2021/03/28 08:19:35;;;;;;;5.58;3.80;;;;;;;9.32;58.68;98210.24;1824288;77;25110;-90
2021/03/28 08:22:48;;;;;;;6.03;4.30;;;;;;;9.60;58.03;98208.64;1729250;83;21601;-84
2021/03/28 08:26:24;;;;;;;6.15;4.65;;;;;;;10.07;56.45;98207.22;1830787;77;25171;-86
2021/03/28 08:29:26;;;;;;;6.15;4.28;;;;;;;10.01;56.77;98212.38;1829542;78;21273;-86
2021/03/28 08:32:21;;;;;;;9.85;4.37;;;;;;;9.95;56.60;98222.81;1829754;78;21287;-89
2021/03/28 08:35:32;;;;;;;6.08;4.10;;;;;;;10.10;56.28;98222.37;1796278;80;21599;-85
2021/03/28 08:38:21;;;;;;;6.03;4.20;;;;;;;10.13;56.28;98216.89;1790611;80;21220;-86
2021/03/28 08:41:31;;;;;;;9.40;4.03;;;;;;;10.23;55.87;98218.97;1759113;81;21178;-84
2021/03/28 08:44:45;;;;;;;6.62;4.25;;;;;;;10.50;54.94;98231.42;1851081;77;25283;-84
2021/03/28 08:47:48;;;;;;;6.75;4.87;;;;;;;10.55;54.77;98239.42;1808725;78;21170;-86
2021/03/28 08:50:51;;;;;;;8.03;3.33;;;;;;;10.76;54.67;98225.36;1794793;80;21633;-89
2021/03/28 08:53:50;;;;;;;6.92;4.62;;;;;;;11.13;54.20;98218.22;1793644;80;21151;-83
2021/03/28 08:56:54;;;;;;;5.97;4.28;;;;;;;11.61;53.61;98223.49;1780713;80;21174;-81
2021/03/28 08:59:52;;;;;;;5.60;4.40;;;;;;;11.95;52.94;98220.75;1744769;82;21596;-85
2021/03/28 09:02:59;;;;;;;8.05;3.80;;;;;;;12.23;52.70;98225.50;1736189;82;21210;-85
2021/03/28 09:05:46;;;;;;;7.30;4.30;;;;;;;12.35;49.58;98239.66;1744390;82;21187;-84
2021/03/28 09:08:34;;;;;;;4.87;3.50;;;;;;;12.43;50.34;98236.48;1715603;82;21162;-82
2021/03/28 09:11:44;;;;;;;6.17;3.85;;;;;;;12.40;49.29;98239.34;1745480;81;21133;-86
2021/03/28 09:15:02;;;;;;;9.08;3.58;;;;;;;12.09;48.37;98243.62;1676037;81;21167;-88
2021/03/28 09:18:14;;;;;;;9.38;4.10;;;;;;;11.95;47.69;98244.53;1730843;83;21181;-86
2021/03/28 09:20:54;;;;;;;5.92;3.90;;;;;;;11.78;48.23;98255.39;1712024;84;21637;-85
2021/03/28 09:23:40;;;;;;;4.10;3.33;;;;;;;11.84;48.48;98256.29;1684752;84;21243;-86
2021/03/28 09:26:34;;;;;;;4.95;3.87;;;;;;;11.82;47.69;98255.54;1715091;83;21170;-88
2021/03/28 09:29:42;;;;;;;5.05;3.62;;;;;;;11.91;47.79;98256.73;1765329;81;21658;-86
2021/03/28 09:32:39;;;;;;;4.27;3.67;;;;;;;12.12;47.81;98242.08;1774504;81;21296;-89
2021/03/28 09:35:43;;;;;;;;;;;;;;;12.22;46.82;98240.98;1776630;81;21276;-86
2021/03/28 09:38:48;;;;;;;5.22;3.10;;;;;;;12.27;44.13;98240.66;1748100;81;20194;-87
2021/03/28 09:42:02;;;;;;;5.58;3.17;;;;;;;12.40;45.37;98229.59;1727400;81;21202;-84
2021/03/28 09:44:43;;;;;;;5.90;4.00;;;;;;;12.49;45.19;98230.77;1743350;82;21198;-88
2021/03/28 09:47:42;;;;;;;5.55;3.10;;;;;;;12.53;44.27;98231.39;1742918;81;21197;-89
2021/03/28 09:50:26;;;;;;;6.05;2.90;;;;;;;12.53;44.23;98241.47;1762771;81;21812;-90
2021/03/28 09:53:34;;;;;;;6.05;2.87;;;;;;;12.57;44.74;98250.90;1745582;82;21406;-86
2021/03/28 09:56:33;;;;;;;5.83;2.05;;;;;;;12.51;43.46;98246.05;1714686;81;21230;-81
2021/03/28 09:59:39;;;;;;;3.50;1.98;;;;;;;12.44;42.61;98258.84;1712246;84;21273;-85
2021/03/28 10:02:39;;;;;;;6.53;2.00;;;;;;;12.29;42.78;98252.81;1651432;87;21202;-86
2021/03/28 10:05:33;;;;;;;3.72;1.92;;;;;;;12.27;42.77;98253.39;1739904;81;21679;-86
2021/03/28 10:08:17;;;;;;;6.58;2.20;;;;;;;12.22;42.06;98250.69;1769464;80;21172;-82
2021/03/28 10:10:58;;;;;;;4.15;2.20;;;;;;;12.22;43.09;98267.41;1758191;80;21511;-83
2021/03/28 10:14:00;;;;;;;5.67;1.50;;;;;;;12.02;41.15;98266.97;1749212;81;21170;-90
2021/03/28 10:16:55;;;;;;;2.67;1.60;;;;;;;11.78;42.20;98277.84;1742334;81;21288;-86
2021/03/28 10:19:38;;;;;;;3.30;1.87;;;;;;;11.46;42.46;98285.59;1751017;81;21131;-87
2021/03/28 10:22:24;;;;;;;2.75;1.22;;;;;;;11.08;42.71;98288.44;1650544;86;21167;-88
2021/03/28 10:25:16;;;;;;;2.90;1.40;;;;;;;10.85;43.70;98300.92;1617134;88;21253;-84
2021/03/28 10:28:18;;;;;;;4.00;1.60;;;;;;;10.75;44.08;98300.63;1619697;88;21290;-82
2021/03/28 10:31:29;;;;;;;2.35;1.52;;;;;;;10.69;44.56;98303.16;1630601;87;21210;-84
2021/03/28 10:34:36;;;;;;;2.22;1.40;;;;;;;10.63;44.90;98307.50;1600234;88;21226;-86
2021/03/28 10:37:38;;;;;;;3.60;1.47;;;;;;;10.67;45.10;98309.48;1622642;88;21272;-84
2021/03/28 10:40:35;;;;;;;5.42;1.45;;;;;;;10.59;45.10;98309.94;1669117;82;21238;-87
2021/03/28 10:43:53;;;;;;;2.25;1.32;;;;;;;10.44;45.05;98315.70;1732954;82;21564;-83
2021/03/28 10:46:47;;;;;;;8.33;1.60;;;;;;;10.44;44.98;98318.34;1779099;79;21245;-83
2021/03/28 10:49:38;;;;;;;2.87;1.47;;;;;;;10.35;44.34;98326.77;1692921;84;21157;-86
2021/03/28 10:52:53;;;;;;;7.37;1.42;;;;;;;10.22;44.41;98329.25;1697045;84;21223;-85
2021/03/28 10:55:47;;;;;;;2.67;1.50;;;;;;;10.20;44.51;98339.89;1693202;84;21203;-87
2021/03/28 10:59:05;;;;;;;3.20;1.45;;;;;;;10.21;44.52;98345.55;1677614;85;21190;-84
2021/03/28 11:02:10;;;;;;;2.70;1.70;;;;;;;10.23;44.94;98338.86;1806921;79;24437;-87
2021/03/28 11:05:04;;;;;;;1.90;1.32;;;;;;;10.21;45.15;98335.00;1806429;79;21215;-84
2021/03/28 11:08:15;;;;;;;2.37;1.35;;;;;;;10.28;45.14;98345.55;1801334;79;21199;-82
2021/03/28 11:11:15;;;;;;;2.67;1.32;;;;;;;10.35;45.36;98338.14;1779085;80;21214;-89
2021/03/28 11:14:16;;;;;;;3.05;1.67;;;;;;;10.55;45.07;98341.41;1822527;77;24738;-85
2021/03/28 11:17:36;;;;;;;3.10;1.50;;;;;;;10.56;45.06;98347.89;1769369;78;22251;-89
2021/03/28 11:20:35;;;;;;;3.65;1.72;;;;;;;10.67;45.32;98348.55;1825725;78;21564;-84
2021/03/28 11:23:42;;;;;;;2.70;1.37;;;;;;;10.68;45.62;98354.69;1826849;78;21150;-90
2021/03/28 11:26:53;;;;;;;4.25;1.40;;;;;;;10.54;45.96;98347.13;1748312;81;21215;-87
2021/03/28 11:29:57;;;;;;;2.42;1.40;;;;;;;10.53;46.09;98348.09;1708206;82;21178;-84
2021/03/28 11:32:40;;;;;;;3.33;1.47;;;;;;;10.51;46.13;98352.61;1708172;82;21208;-84
2021/03/28 11:35:40;;;;;;;4.10;1.52;;;;;;;10.56;45.78;98353.16;1854330;76;23688;-85
2021/03/28 11:38:20;;;;;;;1.52;1.10;;;;;;;10.35;45.58;98362.34;1822037;79;21742;-86
2021/03/28 11:41:11;;;;;;;1.60;1.20;;;;;;;10.18;45.92;98349.67;1788749;80;21195;-85
2021/03/28 11:44:09;;;;;;;2.42;1.72;;;;;;;10.14;45.89;98354.76;1850036;77;24673;-84
2021/03/28 11:46:53;;;;;;;2.75;1.50;;;;;;;10.05;46.05;98353.97;1794635;78;21172;-84
2021/03/28 11:49:25;;;;;;;2.00;1.10;;;;;;;10.11;45.89;98348.34;1775516;81;21155;-85
2021/03/28 11:52:13;;;;;;;2.37;1.60;;;;;;;10.14;45.65;98347.69;1775282;81;21151;-84
2021/03/28 11:55:09;;;;;;;1.60;1.00;;;;;;;10.14;45.66;98350.80;1763522;81;21131;-84
2021/03/28 11:57:40;;;;;;;2.35;1.30;;;;;;;10.20;45.63;98344.33;1732912;83;21589;-85
2021/03/28 12:00:26;;;;;;;2.27;1.70;;;;;;;10.31;45.85;98343.20;1760236;81;21134;-86
2021/03/28 12:03:24;;;;;;;2.05;1.40;;;;;;;10.41;45.98;98349.66;1763080;80;21174;-83
2021/03/28 12:06:21;;;;;;;2.27;1.47;;;;;;;10.49;45.92;98345.25;1791219;80;21175;-87
2021/03/28 12:09:00;;;;;;;2.02;1.62;;;;;;;10.47;46.09;98344.49;1790485;80;21207;-86
2021/03/28 12:11:49;;;;;;;2.00;1.40;;;;;;;10.46;46.27;98332.25;1695225;83;21637;-85
2021/03/28 12:14:32;;;;;;;2.72;1.52;;;;;;;10.44;46.00;98336.30;1670405;86;21216;-86
2021/03/28 12:17:15;;;;;;;2.47;1.35;;;;;;;10.28;46.07;98337.65;1670526;85;21478;-88
2021/03/28 12:20:12;;;;;;;2.08;1.27;;;;;;;10.34;45.92;98334.29;1670390;86;21241;-83
2021/03/28 12:22:56;;;;;;;4.08;1.70;;;;;;;10.52;45.39;98338.48;1695088;84;21683;-87
2021/03/28 12:25:36;;;;;;;19.42;11.57;;;;;;;10.75;44.76;98333.59;1850001;77;24113;-84
2021/03/28 12:28:25;;;;;;;2.50;1.60;;;;;;;10.78;45.02;98338.20;1829771;77;21162;-82
2021/03/28 12:30:53;;;;;;;2.85;1.50;;;;;;;10.87;44.74;98333.30;1813247;77;21168;-87
2021/03/28 12:33:26;;;;;;;4.83;2.02;;;;;;;10.81;44.17;98333.20;1784357;77;21149;-84
2021/03/28 12:36:04;;;;;;;6.53;1.57;;;;;;;10.81;44.99;98338.48;1822307;77;21143;-81
2021/03/28 12:38:43;;;;;;;3.95;1.57;;;;;;;10.85;44.94;98333.41;1823162;77;21635;-82
2021/03/28 12:41:22;;;;;;;3.30;1.27;;;;;;;10.83;44.96;98331.81;1762027;80;21609;-82
2021/03/28 12:44:09;;;;;;;2.45;1.37;;;;;;;11.01;44.87;98332.44;1776573;81;21183;-83
2021/03/28 12:46:51;;;;;;;7.78;2.80;;;;;;;11.19;44.91;98330.45;1761677;81;21230;-84
2021/03/28 12:49:35;;;;;;;4.58;1.20;;;;;;;11.29;44.96;98329.38;1758150;81;21605;-86
2021/03/28 12:52:17;;;;;;;2.05;1.30;;;;;;;11.35;44.81;98325.89;1617392;88;21242;-84
2021/03/28 12:54:56;;;;;;;2.20;1.47;;;;;;;11.42;43.72;98319.75;1644674;87;21223;-87
2021/03/28 12:57:38;;;;;;;3.20;1.47;;;;;;;11.35;44.14;98325.05;1638004;87;21202;-86
2021/03/28 13:00:26;;;;;;;3.87;1.92;;;;;;;11.25;43.66;98324.32;1618689;87;21249;-87
2021/03/28 13:02:57;;;;;;;2.33;1.30;;;;;;;11.16;44.01;98320.94;1627099;85;21198;-85
2021/03/28 13:05:37;;;;;;;1.92;1.27;;;;;;;11.25;44.26;98332.23;1635034;87;21467;-90
2021/03/28 13:08:17;;;;;;;4.67;1.57;;;;;;;11.27;44.13;98324.70;1624026;88;21210;-84
2021/03/28 13:10:46;;;;;;;3.47;1.85;;;;;;;11.18;44.18;98324.80;1709727;81;21920;-83
2021/03/28 13:13:20;;;;;;;2.72;1.42;;;;;;;11.09;44.04;98313.02;1741651;82;21236;-87
2021/03/28 13:15:55;;;;;;;3.35;1.70;;;;;;;11.06;44.47;98307.47;1741849;81;21167;-89
2021/03/28 13:18:47;;;;;;;6.25;1.65;;;;;;;11.15;44.42;98298.14;1742055;82;21157;-90
2021/03/28 13:21:29;;;;;;;3.08;1.90;;;;;;;11.25;44.44;98290.01;1741960;81;21187;-87
2021/03/28 13:24:13;;;;;;;2.33;1.52;;;;;;;11.40;44.60;98296.55;1739949;81;21183;-88
2021/03/28 13:27:08;;;;;;;2.75;1.57;;;;;;;11.53;43.89;98300.11;1758415;81;21203;-86
2021/03/28 13:29:55;;;;;;;3.37;1.70;;;;;;;11.63;43.93;98300.34;1747046;82;21180;-85
2021/03/28 13:32:27;;;;;;;3.00;1.50;;;;;;;11.38;41.88;98305.04;1816874;78;21314;-91
2021/03/28 13:34:59;;;;;;;2.00;1.52;;;;;;;11.00;41.81;98301.72;1808649;79;21194;-87
2021/03/28 13:37:33;;;;;;;2.80;1.37;;;;;;;10.55;42.68;98307.13;1783933;80;21164;-89
2021/03/28 13:40:16;;;;;;;7.00;1.95;;;;;;;10.16;43.58;98302.34;1784481;80;21176;-90
2021/03/28 13:42:50;;;;;;;3.65;0.93;;;;;;;9.98;44.19;98312.17;1697921;84;21250;-85
2021/03/28 13:45:32;;;;;;;4.62;1.70;;;;;;;9.95;44.10;98308.41;1709510;83;21584;-92
2021/03/28 13:48:14;;;;;;;6.70;2.00;;;;;;;9.88;43.85;98307.08;1728360;83;21667;-92
2021/03/28 13:51:17;;;;;;;1.95;1.52;;;;;;;9.85;43.38;98300.67;1851655;77;24541;-90
2021/03/28 13:54:11;;;;;;;5.42;1.60;;;;;;;9.88;44.07;98303.13;1814063;78;21259;-87
2021/03/28 13:56:48;;;;;;;2.17;1.47;;;;;;;10.03;44.10;98309.74;1822689;78;21592;-91
2021/03/28 13:59:34;;;;;;;2.08;1.42;;;;;;;10.06;42.61;98301.19;1849324;77;24502;-91
2021/03/28 14:02:25;;;;;;;2.45;1.57;;;;;;;10.00;42.88;98310.78;1797881;79;21172;-90
2021/03/28 14:05:07;;;;;;;2.00;1.40;;;;;;;9.97;42.55;98299.96;1794745;79;21122;-92
2021/03/28 14:07:58;;;;;;;5.35;2.52;;;;;;;10.01;42.65;98308.53;1819809;79;21294;-92
2021/03/28 14:10:39;;;;;;;5.33;1.52;;;;;;;10.12;42.79;98307.41;1818333;79;21299;-90
2021/03/28 14:13:34;;;;;;;1.60;1.17;;;;;;;10.20;42.61;98310.91;1827357;77;21129;-92
2021/03/28 14:16:11;;;;;;;2.27;1.50;;;;;;;10.23;41.82;98305.47;1788660;79;21571;-94
2021/03/28 14:18:49;;;;;;;2.47;1.42;;;;;;;10.34;42.33;98313.20;1815280;79;21136;-93
2021/03/28 14:21:36;;;;;;;4.65;2.00;;;;;;;10.43;41.95;98306.09;1819144;79;21276;-92